sensor_id;sensor_type;location;lat;lon;timestamp;temperature;humidity
28069;DHT22;15382;47.578;8.086;2023-08-07T00:01:37;12.60;99.90
28069;DHT22;15382;47.578;8.086;2023-08-07T00:11:38;12.60;99.90
28069;DHT22;15382;47.578;8.086;2023-08-07T00:21:38;12.70;99.90
28069;DHT22;15382;47.578;8.086;2023-08-07T00:31:39;12.80;99.90
28069;DHT22;15382;47.578;8.086;2023-08-07T00:41:40;12.80;99.90
28069;DHT22;15382;47.578;8.086;2023-08-07T00:51:41;12.70;99.90
28069;DHT22;15382;47.578;8.086;2023-08-07T01:01:42;12.40;99.90
28069;DHT22;15382;47.578;8.086;2023-08-07T01:11:43;12.30;99.90
28069;DHT22;15382;47.578;8.086;2023-08-07T01:21:48;12.30;99.90
28069;DHT22;15382;47.578;8.086;2023-08-07T01:31:49;12.20;99.90
28069;DHT22;15382;47.578;8.086;2023-08-07T01:41:49;12.10;99.90
28069;DHT22;15382;47.578;8.086;2023-08-07T01:51:50;12.10;99.90
28069;DHT22;15382;47.578;8.086;2023-08-07T02:01:51;12.00;99.90
28069;DHT22;15382;47.578;8.086;2023-08-07T02:11:52;12.00;99.90
28069;DHT22;15382;47.578;8.086;2023-08-07T02:21:52;12.00;99.90
28069;DHT22;15382;47.578;8.086;2023-08-07T02:31:53;12.00;99.90
28069;DHT22;15382;47.578;8.086;2023-08-07T02:41:53;12.00;99.90
28069;DHT22;15382;47.578;8.086;2023-08-07T02:51:54;12.00;99.90
28069;DHT22;15382;47.578;8.086;2023-08-07T03:01:55;12.00;99.90
28069;DHT22;15382;47.578;8.086;2023-08-07T03:11:56;12.00;99.90
28069;DHT22;15382;47.578;8.086;2023-08-07T03:22:03;12.10;99.90
28069;DHT22;15382;47.578;8.086;2023-08-07T03:32:04;12.00;99.90
28069;DHT22;15382;47.578;8.086;2023-08-07T03:42:07;12.00;99.90
28069;DHT22;15382;47.578;8.086;2023-08-07T03:52:07;12.00;99.90
28069;DHT22;15382;47.578;8.086;2023-08-07T04:02:08;11.90;99.90
28069;DHT22;15382;47.578;8.086;2023-08-07T04:12:09;11.90;99.90
28069;DHT22;15382;47.578;8.086;2023-08-07T04:22:10;11.90;99.90
28069;DHT22;15382;47.578;8.086;2023-08-07T04:32:10;11.80;99.90
28069;DHT22;15382;47.578;8.086;2023-08-07T04:42:11;11.80;99.90
28069;DHT22;15382;47.578;8.086;2023-08-07T04:52:12;11.90;99.90
28069;DHT22;15382;47.578;8.086;2023-08-07T05:02:12;11.90;99.90
28069;DHT22;15382;47.578;8.086;2023-08-07T05:12:13;12.00;99.90
28069;DHT22;15382;47.578;8.086;2023-08-07T05:22:13;12.20;99.90
28069;DHT22;15382;47.578;8.086;2023-08-07T05:32:14;12.50;99.90
28069;DHT22;15382;47.578;8.086;2023-08-07T05:42:15;12.30;99.90
28069;DHT22;15382;47.578;8.086;2023-08-07T05:52:17;12.40;99.90
28069;DHT22;15382;47.578;8.086;2023-08-07T06:02:18;12.60;99.90
28069;DHT22;15382;47.578;8.086;2023-08-07T06:12:19;13.00;99.90
28069;DHT22;15382;47.578;8.086;2023-08-07T06:22:20;13.80;99.90
28069;DHT22;15382;47.578;8.086;2023-08-07T06:32:20;14.10;99.90
28069;DHT22;15382;47.578;8.086;2023-08-07T06:42:21;14.30;99.90
28069;DHT22;15382;47.578;8.086;2023-08-07T06:52:22;14.40;99.90
28069;DHT22;15382;47.578;8.086;2023-08-07T07:02:22;14.50;99.90
28069;DHT22;15382;47.578;8.086;2023-08-07T07:12:23;14.20;99.90
28069;DHT22;15382;47.578;8.086;2023-08-07T07:22:25;14.40;99.90
28069;DHT22;15382;47.578;8.086;2023-08-07T07:32:26;14.20;99.90
28069;DHT22;15382;47.578;8.086;2023-08-07T07:42:27;13.60;99.90
28069;DHT22;15382;47.578;8.086;2023-08-07T07:52:27;13.30;99.90
28069;DHT22;15382;47.578;8.086;2023-08-07T08:02:28;13.50;99.90
28069;DHT22;15382;47.578;8.086;2023-08-07T08:12:30;14.00;99.90
28069;DHT22;15382;47.578;8.086;2023-08-07T08:22:30;13.70;99.90
28069;DHT22;15382;47.578;8.086;2023-08-07T08:32:31;14.40;99.90
28069;DHT22;15382;47.578;8.086;2023-08-07T08:42:32;14.70;99.90
28069;DHT22;15382;47.578;8.086;2023-08-07T08:52:32;14.20;99.90
28069;DHT22;15382;47.578;8.086;2023-08-07T09:02:33;15.50;99.90
28069;DHT22;15382;47.578;8.086;2023-08-07T09:12:34;15.50;99.90
28069;DHT22;15382;47.578;8.086;2023-08-07T09:22:36;16.40;99.90
28069;DHT22;15382;47.578;8.086;2023-08-07T09:32:37;16.20;99.90
28069;DHT22;15382;47.578;8.086;2023-08-07T09:42:39;16.10;99.90
28069;DHT22;15382;47.578;8.086;2023-08-07T09:52:40;17.20;99.90
28069;DHT22;15382;47.578;8.086;2023-08-07T10:02:41;17.40;99.90
28069;DHT22;15382;47.578;8.086;2023-08-07T10:12:42;17.60;99.90
28069;DHT22;15382;47.578;8.086;2023-08-07T10:22:46;17.00;99.90
28069;DHT22;15382;47.578;8.086;2023-08-07T10:32:47;16.70;99.90
28069;DHT22;15382;47.578;8.086;2023-08-07T10:52:52;18.00;99.90
28069;DHT22;15382;47.578;8.086;2023-08-07T11:02:52;18.70;99.90
28069;DHT22;15382;47.578;8.086;2023-08-07T11:12:53;19.00;99.90
28069;DHT22;15382;47.578;8.086;2023-08-07T11:22:58;17.90;99.90
28069;DHT22;15382;47.578;8.086;2023-08-07T11:32:59;18.90;99.90
28069;DHT22;15382;47.578;8.086;2023-08-07T11:43:00;19.30;99.90
28069;DHT22;15382;47.578;8.086;2023-08-07T11:53:00;18.00;99.90
28069;DHT22;15382;47.578;8.086;2023-08-07T12:03:01;17.80;99.90
28069;DHT22;15382;47.578;8.086;2023-08-07T12:13:02;15.60;99.90
28069;DHT22;15382;47.578;8.086;2023-08-07T12:23:11;18.50;99.90
28069;DHT22;15382;47.578;8.086;2023-08-07T12:33:11;18.40;99.90
28069;DHT22;15382;47.578;8.086;2023-08-07T12:43:12;19.10;99.90
28069;DHT22;15382;47.578;8.086;2023-08-07T12:53:13;19.20;99.90
28069;DHT22;15382;47.578;8.086;2023-08-07T13:03:14;18.50;99.90
28069;DHT22;15382;47.578;8.086;2023-08-07T13:13:14;17.40;99.90
28069;DHT22;15382;47.578;8.086;2023-08-07T13:23:15;19.10;99.90
28069;DHT22;15382;47.578;8.086;2023-08-07T13:33:15;19.60;99.90
28069;DHT22;15382;47.578;8.086;2023-08-07T13:43:16;18.70;99.90
28069;DHT22;15382;47.578;8.086;2023-08-07T13:53:17;18.30;99.90
28069;DHT22;15382;47.578;8.086;2023-08-07T14:03:17;19.20;99.90
28069;DHT22;15382;47.578;8.086;2023-08-07T14:13:18;19.40;99.90
28069;DHT22;15382;47.578;8.086;2023-08-07T14:23:19;19.70;99.90
28069;DHT22;15382;47.578;8.086;2023-08-07T14:33:19;19.50;99.90
28069;DHT22;15382;47.578;8.086;2023-08-07T14:43:20;18.60;99.90
28069;DHT22;15382;47.578;8.086;2023-08-07T14:53:21;17.70;99.90
28069;DHT22;15382;47.578;8.086;2023-08-07T15:03:21;16.80;99.90
28069;DHT22;15382;47.578;8.086;2023-08-07T15:13:22;16.70;99.90
28069;DHT22;15382;47.578;8.086;2023-08-07T15:23:23;18.00;99.90
28069;DHT22;15382;47.578;8.086;2023-08-07T15:33:23;18.50;99.90
28069;DHT22;15382;47.578;8.086;2023-08-07T15:43:24;18.00;99.90
28069;DHT22;15382;47.578;8.086;2023-08-07T15:53:25;18.20;99.90
28069;DHT22;15382;47.578;8.086;2023-08-07T16:03:25;18.40;99.90
28069;DHT22;15382;47.578;8.086;2023-08-07T16:13:26;17.90;99.90
28069;DHT22;15382;47.578;8.086;2023-08-07T16:23:27;17.90;99.90
28069;DHT22;15382;47.578;8.086;2023-08-07T16:33:27;17.60;99.90
28069;DHT22;15382;47.578;8.086;2023-08-07T16:43:28;17.70;99.90
28069;DHT22;15382;47.578;8.086;2023-08-07T16:53:29;17.30;99.90
28069;DHT22;15382;47.578;8.086;2023-08-07T17:03:29;17.40;99.90
28069;DHT22;15382;47.578;8.086;2023-08-07T17:13:30;17.60;99.90
28069;DHT22;15382;47.578;8.086;2023-08-07T17:23:30;17.70;99.90
28069;DHT22;15382;47.578;8.086;2023-08-07T17:33:31;17.40;99.90
28069;DHT22;15382;47.578;8.086;2023-08-07T17:43:33;17.10;99.90
28069;DHT22;15382;47.578;8.086;2023-08-07T17:53:34;17.10;99.90
28069;DHT22;15382;47.578;8.086;2023-08-07T18:03:35;17.20;99.90
28069;DHT22;15382;47.578;8.086;2023-08-07T18:13:35;17.10;99.90
28069;DHT22;15382;47.578;8.086;2023-08-07T18:23:36;17.00;99.90
28069;DHT22;15382;47.578;8.086;2023-08-07T18:33:37;16.50;99.90
28069;DHT22;15382;47.578;8.086;2023-08-07T18:43:37;16.00;99.90
28069;DHT22;15382;47.578;8.086;2023-08-07T18:53:38;15.50;99.90
28069;DHT22;15382;47.578;8.086;2023-08-07T19:03:39;15.20;99.90
28069;DHT22;15382;47.578;8.086;2023-08-07T19:13:40;15.40;99.90
28069;DHT22;15382;47.578;8.086;2023-08-07T19:23:41;14.80;99.90
28069;DHT22;15382;47.578;8.086;2023-08-07T19:33:41;14.40;99.90
28069;DHT22;15382;47.578;8.086;2023-08-07T19:43:42;13.40;99.90
28069;DHT22;15382;47.578;8.086;2023-08-07T19:53:44;13.00;99.90
28069;DHT22;15382;47.578;8.086;2023-08-07T20:03:45;12.50;99.90
28069;DHT22;15382;47.578;8.086;2023-08-07T20:13:45;12.30;99.90
28069;DHT22;15382;47.578;8.086;2023-08-07T20:23:46;12.60;99.90
28069;DHT22;15382;47.578;8.086;2023-08-07T20:33:47;12.40;99.90
28069;DHT22;15382;47.578;8.086;2023-08-07T20:43:48;12.10;99.90
28069;DHT22;15382;47.578;8.086;2023-08-07T20:53:49;11.70;99.90
28069;DHT22;15382;47.578;8.086;2023-08-07T21:03:49;11.50;99.90
28069;DHT22;15382;47.578;8.086;2023-08-07T21:13:50;11.70;99.90
28069;DHT22;15382;47.578;8.086;2023-08-07T21:23:51;11.40;99.90
28069;DHT22;15382;47.578;8.086;2023-08-07T21:33:51;11.50;99.90
28069;DHT22;15382;47.578;8.086;2023-08-07T21:43:52;11.60;99.90
28069;DHT22;15382;47.578;8.086;2023-08-07T21:53:53;11.30;99.90
28069;DHT22;15382;47.578;8.086;2023-08-07T22:03:53;11.30;99.90
28069;DHT22;15382;47.578;8.086;2023-08-07T22:13:54;11.10;99.90
28069;DHT22;15382;47.578;8.086;2023-08-07T22:23:55;11.30;99.90
28069;DHT22;15382;47.578;8.086;2023-08-07T22:33:56;11.10;99.90
28069;DHT22;15382;47.578;8.086;2023-08-07T22:43:56;11.10;99.90
28069;DHT22;15382;47.578;8.086;2023-08-07T22:53:57;10.80;99.90
28069;DHT22;15382;47.578;8.086;2023-08-07T23:03:57;10.90;99.90
28069;DHT22;15382;47.578;8.086;2023-08-07T23:13:58;10.70;99.90
28069;DHT22;15382;47.578;8.086;2023-08-07T23:23:59;11.00;99.90
28069;DHT22;15382;47.578;8.086;2023-08-07T23:33:59;11.20;99.90
28069;DHT22;15382;47.578;8.086;2023-08-07T23:44:00;11.20;99.90
28069;DHT22;15382;47.578;8.086;2023-08-07T23:54:01;11.10;99.90
